Time;durP1;ratioP1;P1;durP2;ratioP2;P2;SDS_P1;SDS_P2;PMS_P1;PMS_P2;Temp;Humidity;BMP_temperature;BMP_pressure;BME280_temperature;BME280_humidity;BME280_pressure;Samples;Min_cycle;Max_cycle;Signal;HPM_P1;HPM_P2
2022/09/08 00:01:14;;;;;;;9.00;2.93;;;;;;;12.80;41.20;100096.78;4191220;28;20291;-72
2022/09/08 00:03:41;;;;;;;5.80;2.50;;;;;;;12.81;41.30;100101.13;4189897;28;20288;-75
2022/09/08 00:06:12;;;;;;;9.17;2.63;;;;;;;12.83;40.62;100104.44;4206554;28;21559;-74
2022/09/08 00:08:39;;;;;;;13.67;2.90;;;;;;;12.79;41.16;100095.13;4181896;28;20702;-74
2022/09/08 00:11:08;;;;;;;10.57;2.83;;;;;;;12.65;41.49;100100.13;4195004;28;20220;-71
2022/09/08 00:13:36;;;;;;;8.17;2.47;;;;;;;12.68;41.54;100102.44;4195675;28;20430;-72
2022/09/08 00:16:05;;;;;;;8.83;2.73;;;;;;;12.67;41.00;100100.78;4195463;28;20236;-72
2022/09/08 00:18:37;;;;;;;8.40;2.77;;;;;;;12.57;42.15;100100.13;4194158;28;21763;-72
2022/09/08 00:21:05;;;;;;;7.07;2.80;;;;;;;12.67;41.01;100106.13;4209022;28;20254;-75
2022/09/08 00:23:31;;;;;;;10.03;2.77;;;;;;;12.62;41.68;100097.78;4205540;28;20232;-72
2022/09/08 00:25:58;;;;;;;9.97;2.57;;;;;;;12.67;41.05;100098.13;4204162;28;20227;-74
2022/09/08 00:28:25;;;;;;;6.50;2.50;;;;;;;12.61;41.19;100098.78;4181154;28;20349;-73
2022/09/08 00:30:51;;;;;;;5.83;2.50;;;;;;;12.67;40.97;100102.63;4197768;28;21290;-70
2022/09/08 00:33:18;;;;;;;5.80;2.60;;;;;;;12.68;41.43;100107.78;4196602;28;21096;-67
2022/09/08 00:35:45;;;;;;;9.97;2.70;;;;;;;12.79;40.81;100100.47;4180873;28;20233;-66
2022/09/08 00:38:12;;;;;;;10.40;2.83;;;;;;;12.72;41.67;100110.13;4199846;28;20237;-68
2022/09/08 00:40:46;;;;;;;8.30;2.83;;;;;;;12.73;41.48;100103.78;4197535;28;20428;-68
2022/09/08 00:43:33;;;;;;;14.40;3.20;;;;;;;12.70;41.45;100098.78;4194379;28;21068;-70
2022/09/08 00:46:24;;;;;;;10.27;3.40;;;;;;;12.65;41.21;100102.78;4205903;28;21716;-68
2022/09/08 00:48:57;;;;;;;4.73;2.70;;;;;;;12.62;41.39;100087.09;4203212;28;20578;-69
2022/09/08 00:51:25;;;;;;;8.87;2.50;;;;;;;12.54;41.25;100080.94;4191464;28;20229;-68
2022/09/08 00:53:53;;;;;;;8.33;2.60;;;;;;;12.53;42.01;100076.59;4205923;28;20427;-68
2022/09/08 00:56:21;;;;;;;9.17;2.70;;;;;;;12.53;41.74;100082.78;4196964;28;20232;-66
2022/09/08 00:58:48;;;;;;;6.70;2.60;;;;;;;12.64;42.17;100078.91;4197020;28;22634;-68
2022/09/08 01:01:15;;;;;;;11.57;2.90;;;;;;;12.58;41.99;100066.25;4192067;28;20247;-68
2022/09/08 01:03:42;;;;;;;9.73;2.80;;;;;;;12.54;42.02;100072.91;4200854;28;20228;-68
2022/09/08 01:06:20;;;;;;;6.43;3.00;;;;;;;12.49;41.67;100065.41;4190906;28;24979;-68
2022/09/08 01:14:45;;;;;;;10.20;2.77;;;;;;;12.48;42.19;100073.56;4193354;28;20684;-66
2022/09/08 01:17:26;;;;;;;9.50;2.47;;;;;;;12.44;42.09;100078.44;4186774;28;21863;-69
2022/09/08 01:19:54;;;;;;;8.60;2.70;;;;;;;12.45;41.76;100074.75;4198946;28;22160;-67
2022/09/08 01:22:26;;;;;;;11.37;2.90;;;;;;;12.43;42.03;100077.59;4194659;28;21686;-71
2022/09/08 01:25:17;;;;;;;7.27;2.30;;;;;;;12.44;42.81;100065.09;4189864;28;20597;-66
2022/09/08 01:27:47;;;;;;;6.87;2.27;;;;;;;12.53;41.67;100069.41;4201596;28;20340;-68
2022/09/08 01:30:13;;;;;;;7.37;2.67;;;;;;;12.48;41.91;100071.75;4196107;28;20240;-68
2022/09/08 01:32:42;;;;;;;8.17;2.50;;;;;;;12.51;41.88;100071.41;4196949;28;20236;-69
2022/09/08 01:35:08;;;;;;;8.23;2.60;;;;;;;12.41;42.74;100070.75;4189264;28;20350;-68
2022/09/08 01:37:35;;;;;;;7.93;2.50;;;;;;;12.37;42.90;100077.41;4190216;28;20313;-69
2022/09/08 01:40:03;;;;;;;9.03;2.47;;;;;;;12.29;42.83;100072.06;4189974;28;20245;-68
2022/09/08 01:42:29;;;;;;;6.07;2.57;;;;;;;12.27;42.81;100072.25;4197538;28;20365;-68
2022/09/08 01:44:56;;;;;;;6.97;2.60;;;;;;;12.32;43.21;100069.91;4194031;28;20231;-67
2022/09/08 01:47:23;;;;;;;9.00;3.03;;;;;;;12.30;42.90;100081.75;4197139;28;21084;-68
2022/09/08 01:49:49;;;;;;;5.70;2.43;;;;;;;12.24;42.82;100080.56;4189672;28;25830;-68
2022/09/08 01:52:16;;;;;;;4.60;2.50;;;;;;;12.12;43.63;100080.03;4189597;28;20291;-67
2022/09/08 01:54:42;;;;;;;8.07;2.60;;;;;;;12.14;44.12;100079.88;4189814;28;20245;-70
2022/09/08 01:57:09;;;;;;;10.27;3.07;;;;;;;12.22;43.50;100079.88;4196450;28;20330;-67
2022/09/08 01:59:35;;;;;;;7.33;2.60;;;;;;;12.13;43.51;100076.38;4201228;28;20235;-67
2022/09/08 02:02:02;;;;;;;10.33;2.60;;;;;;;12.14;43.22;100072.72;4191209;28;20285;-68
2022/09/08 02:04:29;;;;;;;6.37;2.50;;;;;;;12.18;42.12;100074.06;4198893;28;20331;-68
2022/09/08 02:06:56;;;;;;;8.27;2.77;;;;;;;12.22;42.80;100072.75;4194293;28;20247;-70
2022/09/08 02:09:22;;;;;;;7.57;2.80;;;;;;;12.23;42.04;100066.38;4201015;28;20225;-69
2022/09/08 02:11:49;;;;;;;7.13;2.40;;;;;;;12.31;42.49;100062.06;4195082;28;20459;-67
2022/09/08 02:14:16;;;;;;;6.30;2.63;;;;;;;12.32;42.30;100058.41;4194747;28;20233;-68
2022/09/08 02:16:43;;;;;;;4.67;2.30;;;;;;;12.30;43.25;100063.91;4194822;28;20698;-68
2022/09/08 02:19:10;;;;;;;6.17;2.80;;;;;;;12.31;43.22;100065.56;4197375;28;20482;-67
2022/09/08 02:21:37;;;;;;;12.27;2.93;;;;;;;12.15;43.47;100068.19;4200801;28;21037;-70
2022/09/08 02:24:04;;;;;;;8.93;2.87;;;;;;;12.14;43.04;100062.03;4193020;28;20636;-68
2022/09/08 02:26:31;;;;;;;5.23;2.80;;;;;;;12.14;43.51;100066.53;4200981;28;22448;-66
2022/09/08 02:28:58;;;;;;;8.57;2.63;;;;;;;12.05;43.75;100068.34;4210254;28;20309;-68
2022/09/08 02:31:26;;;;;;;10.20;4.10;;;;;;;11.98;44.58;100083.34;4197189;28;20304;-67
2022/09/08 02:33:53;;;;;;;7.17;2.73;;;;;;;12.02;43.57;100084.69;4192724;28;20242;-69
2022/09/08 02:36:19;;;;;;;6.33;2.37;;;;;;;11.97;43.63;100084.34;4199974;28;20707;-66
2022/09/08 02:38:53;;;;;;;7.80;2.73;;;;;;;11.84;44.39;100085.59;4206107;28;20242;-68
2022/09/08 02:41:25;;;;;;;5.73;2.50;;;;;;;11.86;44.56;100085.44;4193918;28;20252;-70
2022/09/08 02:43:52;;;;;;;6.23;2.80;;;;;;;11.88;44.29;100082.66;4191021;28;21114;-66
2022/09/08 02:46:19;;;;;;;7.70;2.73;;;;;;;11.79;44.68;100074.59;4207740;28;20814;-66
2022/09/08 02:48:45;;;;;;;5.50;2.50;;;;;;;11.76;45.05;100071.44;4203119;28;20285;-65
2022/09/08 02:51:14;;;;;;;9.03;2.80;;;;;;;11.73;44.86;100075.25;4192719;28;20229;-70
2022/09/08 02:53:41;;;;;;;11.80;3.07;;;;;;;11.67;45.66;100073.22;4190879;28;23638;-69
2022/09/08 02:56:08;;;;;;;6.90;2.87;;;;;;;11.64;45.80;100073.56;4195686;28;20244;-65
2022/09/08 02:58:36;;;;;;;8.67;2.60;;;;;;;11.58;45.18;100077.69;4205543;28;20408;-68
2022/09/08 03:01:04;;;;;;;8.90;2.97;;;;;;;11.58;45.12;100071.53;4203343;28;26765;-68
2022/09/08 03:03:30;;;;;;;6.57;2.70;;;;;;;11.58;45.59;100076.84;4189596;28;20244;-66
2022/09/08 03:05:57;;;;;;;10.13;3.00;;;;;;;11.51;45.97;100081.16;4201349;28;21855;-67
2022/09/08 03:08:24;;;;;;;6.13;2.90;;;;;;;11.56;46.09;100074.34;4200590;28;22618;-68
2022/09/08 03:10:50;;;;;;;12.77;3.03;;;;;;;11.47;46.32;100071.78;4200268;28;20966;-68
2022/09/08 03:13:17;;;;;;;7.30;2.60;;;;;;;11.53;45.92;100073.84;4196018;28;23534;-67
2022/09/08 03:15:43;;;;;;;12.67;3.17;;;;;;;11.34;46.59;100065.09;4197432;28;20238;-68
2022/09/08 03:18:10;;;;;;;8.30;3.03;;;;;;;11.27;47.15;100072.03;4198925;28;20248;-66
2022/09/08 03:20:38;;;;;;;8.90;2.97;;;;;;;11.26;47.43;100067.72;4202408;28;20233;-67
2022/09/08 03:23:04;;;;;;;6.13;2.97;;;;;;;11.30;46.75;100063.72;4194077;28;22899;-67
2022/09/08 03:25:35;;;;;;;9.67;3.13;;;;;;;11.30;46.58;100063.72;4202465;28;20921;-68
2022/09/08 03:28:03;;;;;;;12.63;3.03;;;;;;;11.31;46.27;100057.41;4200364;28;20241;-71
2022/09/08 03:30:30;;;;;;;11.13;2.90;;;;;;;11.30;46.46;100055.72;4193875;28;20241;-71
2022/09/08 03:32:57;;;;;;;10.67;3.13;;;;;;;11.26;46.29;100053.53;4197849;28;20369;-69
2022/09/08 03:35:24;;;;;;;8.90;2.63;;;;;;;11.25;47.19;100055.38;4197286;28;20426;-68
2022/09/08 03:37:52;;;;;;;7.70;2.57;;;;;;;11.25;46.52;100054.56;4206422;28;21039;-68
2022/09/08 03:40:19;;;;;;;9.90;2.53;;;;;;;11.23;45.98;100052.03;4187397;28;20259;-67
2022/09/08 03:42:45;;;;;;;9.60;3.30;;;;;;;11.32;46.10;100053.75;4189047;28;20240;-68
2022/09/08 03:45:15;;;;;;;8.10;2.57;;;;;;;11.40;45.81;100053.81;4197224;28;21351;-69
2022/09/08 03:47:42;;;;;;;14.13;3.30;;;;;;;11.40;46.35;100050.28;4198269;28;22140;-66
2022/09/08 03:50:10;;;;;;;8.10;2.83;;;;;;;11.43;45.69;100057.16;4196071;28;20282;-67
2022/09/08 03:52:36;;;;;;;7.33;2.80;;;;;;;11.39;45.76;100057.44;4193586;28;20232;-68
2022/09/08 03:55:03;;;;;;;7.37;2.80;;;;;;;11.43;46.13;100067.81;4208813;28;21221;-70
2022/09/08 03:57:31;;;;;;;10.93;2.80;;;;;;;11.48;45.95;100065.50;4203515;28;20779;-69
2022/09/08 03:59:58;;;;;;;10.03;2.93;;;;;;;11.48;46.25;100066.31;4201601;28;20453;-67
2022/09/08 04:02:26;;;;;;;9.23;2.53;;;;;;;11.54;46.61;100068.34;4199454;28;20280;-70
2022/09/08 04:04:55;;;;;;;9.73;3.00;;;;;;;11.48;46.33;100071.66;4191554;28;20294;-68
2022/09/08 04:07:23;;;;;;;12.60;3.20;;;;;;;11.32;47.04;100068.91;4192516;28;21767;-71
2022/09/08 04:09:50;;;;;;;11.17;2.93;;;;;;;11.28;46.98;100057.72;4205082;28;20340;-66
2022/09/08 04:12:16;;;;;;;17.50;3.03;;;;;;;11.28;47.07;100049.72;4203079;28;20229;-67
2022/09/08 04:14:43;;;;;;;6.90;3.17;;;;;;;11.21;47.63;100051.34;4180574;28;20228;-68
2022/09/08 04:17:10;;;;;;;15.07;2.87;;;;;;;11.19;47.85;100051.53;4208079;28;22777;-67
2022/09/08 04:19:36;;;;;;;10.90;3.40;;;;;;;11.10;48.34;100052.47;4210892;28;20231;-66
2022/09/08 04:22:03;;;;;;;15.97;3.30;;;;;;;11.13;48.52;100051.31;4225486;28;20598;-68
2022/09/08 04:24:31;;;;;;;9.07;2.73;;;;;;;11.10;48.12;100052.47;4209346;28;22340;-67
2022/09/08 04:26:58;;;;;;;15.70;2.90;;;;;;;11.16;48.83;100048.34;4225436;28;20322;-67
2022/09/08 04:29:25;;;;;;;11.27;3.30;;;;;;;11.22;49.02;100044.22;4202554;28;21639;-69
2022/09/08 04:31:52;;;;;;;16.23;2.83;;;;;;;11.06;48.80;100048.47;4238979;28;21431;-68
2022/09/08 04:34:18;;;;;;;13.53;3.37;;;;;;;10.97;49.46;100047.56;4236888;28;20853;-70
2022/09/08 04:36:45;;;;;;;12.40;3.43;;;;;;;10.94;49.90;100037.25;4219406;28;20244;-69
2022/09/08 04:39:12;;;;;;;9.37;3.23;;;;;;;10.98;49.20;100045.75;4213504;28;20240;-71
2022/09/08 04:41:39;;;;;;;9.17;2.90;;;;;;;11.06;49.92;100042.31;4214956;28;20233;-68
2022/09/08 04:44:10;;;;;;;10.13;2.73;;;;;;;11.02;50.08;100048.94;4209507;28;20242;-69
2022/09/08 04:46:36;;;;;;;18.37;3.33;;;;;;;11.03;50.20;100050.59;4205632;28;22677;-70
2022/09/08 04:49:03;;;;;;;13.23;2.97;;;;;;;11.11;49.65;100061.31;4208810;28;20345;-69
2022/09/08 04:51:31;;;;;;;13.17;3.43;;;;;;;11.13;50.28;100056.66;4201887;28;21893;-72
2022/09/08 04:53:58;;;;;;;13.80;3.33;;;;;;;11.16;49.49;100057.16;4197449;28;20240;-71
2022/09/08 04:56:27;;;;;;;9.80;2.93;;;;;;;11.13;49.61;100054.00;4199280;28;20241;-71
2022/09/08 04:58:54;;;;;;;9.53;3.07;;;;;;;11.22;49.53;100049.56;4221715;28;20773;-76
2022/09/08 05:01:29;;;;;;;11.13;3.10;;;;;;;11.25;49.48;100050.06;4203148;28;21523;-75
2022/09/08 05:04:01;;;;;;;9.47;3.40;;;;;;;11.36;49.14;100056.94;4200321;28;21401;-76
2022/09/08 05:06:31;;;;;;;18.73;3.47;;;;;;;11.50;48.42;100059.00;4204456;28;23687;-72
2022/09/08 05:08:58;;;;;;;15.20;3.00;;;;;;;11.61;48.02;100055.19;4183942;28;20260;-77
2022/09/08 05:11:26;;;;;;;10.80;2.63;;;;;;;11.77;46.39;100057.91;4198120;28;20598;-76
2022/09/08 05:13:53;;;;;;;7.27;2.60;;;;;;;11.94;45.42;100055.31;4192306;28;22043;-74
2022/09/08 05:16:22;;;;;;;21.93;3.00;;;;;;;12.09;45.12;100067.03;4193177;28;20239;-71
2022/09/08 05:18:51;;;;;;;7.10;2.37;;;;;;;12.22;44.58;100067.41;4201550;28;20272;-79
2022/09/08 05:21:18;;;;;;;8.43;2.27;;;;;;;12.37;44.28;100067.56;4196560;28;20525;-73
2022/09/08 05:23:45;;;;;;;9.37;2.50;;;;;;;12.52;43.37;100077.59;4221368;28;20257;-77
2022/09/08 05:26:13;;;;;;;12.63;2.77;;;;;;;12.77;43.41;100075.75;4201382;28;21796;-72
2022/09/08 05:28:40;;;;;;;7.30;2.63;;;;;;;12.97;41.95;100084.22;4184614;28;20243;-72
2022/09/08 05:31:12;;;;;;;13.13;3.00;;;;;;;13.03;42.62;100087.06;4215004;28;20362;-75
2022/09/08 05:33:39;;;;;;;9.63;2.73;;;;;;;13.29;42.13;100081.53;4214286;28;20230;-76
2022/09/08 05:36:15;;;;;;;9.83;2.80;;;;;;;13.47;40.76;100080.47;4223461;28;20261;-73
2022/09/08 05:38:41;;;;;;;6.30;2.43;;;;;;;13.55;40.94;100087.63;4211562;28;20327;-73
2022/09/08 05:41:09;;;;;;;7.00;2.87;;;;;;;13.59;40.51;100078.25;4229662;28;22480;-73
2022/09/08 05:43:37;;;;;;;11.17;3.17;;;;;;;13.78;40.45;100077.84;4223050;28;21219;-72
2022/09/08 05:46:04;;;;;;;8.07;2.40;;;;;;;13.97;40.40;100083.75;4208413;28;20340;-73
2022/09/08 05:48:31;;;;;;;12.00;2.20;;;;;;;14.02;39.99;100082.22;4200538;28;20382;-76
2022/09/08 05:50:58;;;;;;;4.83;2.60;;;;;;;14.12;39.87;100087.38;4229374;28;20237;-72
2022/09/08 05:53:25;;;;;;;16.20;2.90;;;;;;;14.10;40.05;100081.34;4204262;28;20228;-73
2022/09/08 05:55:56;;;;;;;12.03;2.50;;;;;;;14.06;39.29;100072.84;4203997;28;20829;-72
2022/09/08 05:58:23;;;;;;;6.80;2.60;;;;;;;14.01;39.95;100071.72;4216074;28;20371;-75
2022/09/08 06:01:10;;;;;;;8.27;2.50;;;;;;;13.98;39.27;100072.03;4198179;28;20410;-71
2022/09/08 06:03:36;;;;;;;12.37;2.43;;;;;;;13.93;39.99;100065.41;4248619;28;21133;-74
2022/09/08 06:06:09;;;;;;;8.00;2.63;;;;;;;13.90;39.94;100075.59;4205997;28;20300;-72
2022/09/08 06:08:37;;;;;;;8.70;2.37;;;;;;;14.08;39.97;100084.19;4239092;28;20236;-73
2022/09/08 06:11:04;;;;;;;14.83;2.80;;;;;;;14.15;39.68;100079.81;4202082;28;20236;-73
2022/09/08 06:13:32;;;;;;;6.10;2.40;;;;;;;14.26;39.84;100085.78;4205250;28;20232;-72
2022/09/08 06:16:11;;;;;;;8.33;2.57;;;;;;;14.39;39.67;100074.47;4188600;28;21720;-74
2022/09/08 06:18:40;;;;;;;11.13;3.03;;;;;;;14.48;39.31;100081.44;4183030;28;20244;-72
2022/09/08 06:21:13;;;;;;;7.33;3.03;;;;;;;14.47;39.58;100077.06;4210948;28;23031;-75
2022/09/08 06:23:40;;;;;;;11.00;2.67;;;;;;;14.40;39.03;100074.28;4190475;28;20303;-72
2022/09/08 06:26:15;;;;;;;8.97;2.70;;;;;;;14.37;39.16;100074.63;4200388;28;20711;-71
2022/09/08 06:28:59;;;;;;;12.07;2.90;;;;;;;14.35;39.46;100069.47;4214213;28;20227;-72
2022/09/08 06:31:31;;;;;;;9.63;2.90;;;;;;;14.29;39.16;100067.50;4251178;28;20244;-72
2022/09/08 06:34:05;;;;;;;12.70;2.70;;;;;;;14.32;39.47;100072.50;4215494;28;23920;-71
2022/09/08 06:36:41;;;;;;;9.73;2.53;;;;;;;14.31;39.56;100070.00;4209085;28;20239;-74
2022/09/08 06:39:13;;;;;;;16.93;2.70;;;;;;;14.44;39.40;100082.78;4263235;28;20287;-73
2022/09/08 06:41:48;;;;;;;8.50;2.83;;;;;;;14.77;39.36;100078.03;4210867;28;20316;-76
2022/09/08 06:44:20;;;;;;;10.90;2.80;;;;;;;14.97;39.17;100081.03;4207726;28;20269;-75
2022/09/08 06:46:47;;;;;;;13.83;2.57;;;;;;;15.24;38.44;100082.28;4209771;28;21276;-72
2022/09/08 06:49:14;;;;;;;9.10;3.20;;;;;;;15.30;37.67;100080.69;4216303;28;20303;-76
2022/09/08 06:52:15;;;;;;;15.50;2.80;;;;;;;15.20;38.26;100079.13;4204327;28;20463;-75
2022/09/08 06:55:35;;;;;;;8.27;2.70;;;;;;;15.45;37.55;100097.59;4202058;28;20242;-73
2022/09/08 06:58:20;;;;;;;9.20;2.70;;;;;;;15.78;37.23;100097.25;4163624;29;20260;-80
2022/09/08 07:00:51;;;;;;;6.43;2.83;;;;;;;16.51;35.44;100102.63;4157430;29;22180;-71
2022/09/08 07:04:08;;;;;;;10.60;3.00;;;;;;;18.88;31.19;100124.78;4182789;28;20419;-71
2022/09/08 07:06:45;;;;;;;8.30;2.60;;;;;;;21.48;27.23;100131.69;4210660;28;20527;-73
2022/09/08 07:09:27;;;;;;;10.03;2.90;;;;;;;23.00;24.53;100144.31;4182496;28;20238;-73
2022/09/08 07:12:03;;;;;;;8.37;2.80;;;;;;;22.64;24.60;100156.97;4203619;28;22167;-74
2022/09/08 07:14:51;;;;;;;18.03;2.93;;;;;;;23.14;24.04;100153.91;4231605;28;20730;-75
2022/09/08 07:17:29;;;;;;;17.80;2.67;;;;;;;23.07;23.90;100142.31;4192687;28;20250;-73
2022/09/08 07:19:56;;;;;;;10.47;2.77;;;;;;;21.50;25.89;100127.72;4215516;28;20239;-73
2022/09/08 07:22:42;;;;;;;6.73;2.73;;;;;;;21.17;26.43;100127.19;4228954;28;20232;-73
2022/09/08 07:25:15;;;;;;;11.93;2.50;;;;;;;21.16;27.19;100123.63;4194248;28;20296;-67
2022/09/08 07:27:45;;;;;;;7.00;2.90;;;;;;;20.87;26.55;100125.16;4206629;28;20236;-68
2022/09/08 07:30:18;;;;;;;12.83;2.60;;;;;;;22.26;25.43;100128.28;4218110;28;20368;-68
2022/09/08 07:33:01;;;;;;;10.60;2.30;;;;;;;24.07;22.82;100121.47;4193179;28;20233;-72
2022/09/08 07:36:11;;;;;;;10.60;3.27;;;;;;;25.94;20.07;100142.19;4206370;28;20288;-68
2022/09/08 07:38:45;;;;;;;12.50;2.67;;;;;;;25.80;20.41;100144.47;4206676;28;22494;-69
2022/09/08 07:41:18;;;;;;;7.60;3.13;;;;;;;26.50;19.36;100151.03;4207605;28;20247;-67
2022/09/08 07:43:46;;;;;;;8.80;2.40;;;;;;;26.64;19.30;100150.63;4189861;28;20231;-70
2022/09/08 07:46:22;;;;;;;20.67;3.03;;;;;;;27.82;18.54;100165.19;4200171;28;21532;-67
2022/09/08 07:49:00;;;;;;;9.50;2.77;;;;;;;29.28;16.45;100178.69;4200235;28;21166;-68
2022/09/08 07:51:33;;;;;;;4.95;2.35;;;;;;;29.66;16.21;100184.66;4214485;28;22666;-66
2022/09/08 07:54:24;;;;;;;7.07;2.55;;;;;;;29.02;15.77;100170.44;4214345;28;21242;-67
2022/09/08 07:57:22;;;;;;;11.27;2.37;;;;;;;29.62;16.57;100173.44;4233125;28;20267;-70
2022/09/08 08:00:10;;;;;;;6.10;2.37;;;;;;;30.67;14.42;100182.59;4219116;28;21165;-70
2022/09/08 08:03:07;;;;;;;11.25;2.55;;;;;;;27.11;17.47;100169.06;4206449;28;20252;-69
2022/09/08 08:05:47;;;;;;;8.43;2.43;;;;;;;26.68;18.34;100155.31;4239279;28;20252;-67
2022/09/08 08:08:30;;;;;;;5.73;2.10;;;;;;;26.68;18.36;100154.50;4191389;28;20247;-67
2022/09/08 08:11:06;;;;;;;11.93;2.77;;;;;;;26.41;18.10;100149.84;4208943;28;20924;-68
2022/09/08 08:13:37;;;;;;;9.17;2.60;;;;;;;25.81;19.21;100156.19;4215954;28;20287;-68
2022/09/08 08:16:08;;;;;;;11.23;2.67;;;;;;;25.19;20.12;100144.44;4204373;28;25642;-68
2022/09/08 08:18:56;;;;;;;7.37;2.10;;;;;;;23.72;21.55;100137.84;4209561;28;20241;-68
2022/09/08 08:21:25;;;;;;;7.33;2.10;;;;;;;22.89;23.06;100123.38;4219409;28;21378;-67
2022/09/08 08:24:04;;;;;;;7.93;2.80;;;;;;;22.51;23.53;100128.13;4234682;28;20296;-68
2022/09/08 08:26:49;;;;;;;8.13;2.30;;;;;;;22.73;23.81;100123.03;4253717;28;20257;-65
2022/09/08 08:29:43;;;;;;;7.47;2.30;;;;;;;22.00;24.51;100118.59;4236805;28;20233;-68
2022/09/08 08:32:12;;;;;;;8.00;2.30;;;;;;;21.68;24.97;100112.50;4216123;28;20243;-70
2022/09/08 08:35:25;;;;;;;6.30;2.17;;;;;;;21.26;25.12;100112.31;4215890;28;20256;-69
2022/09/08 08:37:53;;;;;;;12.80;2.00;;;;;;;21.54;25.49;100116.41;4211628;28;21750;-69
2022/09/08 08:40:28;;;;;;;8.27;2.23;;;;;;;21.55;25.21;100120.81;4206972;28;20350;-66
2022/09/08 08:43:04;;;;;;;7.90;2.20;;;;;;;21.21;25.31;100128.38;4190463;28;21610;-66
2022/09/08 08:45:45;;;;;;;4.03;1.97;;;;;;;20.94;25.71;100120.50;4238467;28;20354;-68
2022/09/08 08:48:22;;;;;;;6.63;2.50;;;;;;;21.07;26.03;100112.28;4217851;28;21232;-69
2022/09/08 08:51:26;;;;;;;9.53;2.40;;;;;;;21.37;25.70;100106.16;4214651;28;20236;-69
2022/09/08 08:54:00;;;;;;;7.00;2.00;;;;;;;21.23;25.27;100108.16;4190298;28;20328;-71
2022/09/08 08:56:34;;;;;;;5.30;2.30;;;;;;;20.97;26.69;100106.53;4262701;28;20320;-71
2022/09/08 08:59:19;;;;;;;8.67;2.40;;;;;;;20.68;26.58;100093.69;4218291;28;20673;-70
2022/09/08 09:01:56;;;;;;;9.97;2.23;;;;;;;20.74;26.75;100092.78;4219620;28;21579;-73
2022/09/08 09:04:39;;;;;;;11.97;2.10;;;;;;;20.69;26.53;100089.91;4229983;28;20246;-71
2022/09/08 09:07:43;;;;;;;5.90;2.30;;;;;;;20.54;27.17;100088.34;4207741;28;20702;-73
2022/09/08 09:10:23;;;;;;;11.30;2.33;;;;;;;20.60;27.05;100082.09;4215578;28;20232;-71
2022/09/08 09:13:09;;;;;;;15.83;2.60;;;;;;;20.34;27.01;100084.94;4206074;28;24220;-69
2022/09/08 09:16:16;;;;;;;6.77;2.17;;;;;;;20.37;27.07;100087.19;4216798;28;21185;-68
2022/09/08 09:19:20;;;;;;;9.07;2.50;;;;;;;20.41;27.29;100080.31;4227924;28;20258;-68
2022/09/08 09:22:06;;;;;;;9.70;2.30;;;;;;;20.45;26.83;100068.00;4193472;28;20234;-69
2022/09/08 09:24:50;;;;;;;9.27;1.73;;;;;;;20.12;27.00;100062.84;4207413;28;20237;-71
2022/09/08 09:27:29;;;;;;;7.80;2.57;;;;;;;20.52;27.06;100060.69;4198970;28;20234;-72
2022/09/08 09:30:12;;;;;;;6.30;2.00;;;;;;;20.71;26.66;100060.78;4186387;28;22745;-69
2022/09/08 09:33:04;;;;;;;4.47;2.10;;;;;;;20.82;25.87;100054.66;4204757;28;20221;-68
2022/09/08 09:36:05;;;;;;;8.83;2.10;;;;;;;21.17;26.49;100046.00;4199099;28;20314;-68
2022/09/08 09:38:50;;;;;;;7.73;2.23;;;;;;;20.98;26.00;100051.38;4206170;28;20253;-49
2022/09/08 09:41:28;;;;;;;9.70;2.20;;;;;;;20.97;26.18;100036.19;4200682;28;22082;-67
2022/09/08 09:44:20;;;;;;;8.23;2.00;;;;;;;20.74;26.63;100041.41;4202318;28;20243;-69
2022/09/08 09:47:26;;;;;;;9.00;2.00;;;;;;;20.65;27.74;100039.00;4215685;28;20822;-70
2022/09/08 09:50:22;;;;;;;8.10;2.40;;;;;;;20.62;26.76;100039.41;4201574;28;24198;-67
2022/09/08 09:53:20;;;;;;;6.43;2.50;;;;;;;20.74;26.94;100038.69;4200549;28;21365;-68
2022/09/08 09:56:20;;;;;;;8.83;1.90;;;;;;;20.95;26.21;100046.41;4204462;28;20636;-70
2022/09/08 09:59:15;;;;;;;13.93;2.50;;;;;;;20.92;26.06;100051.44;4224514;28;20948;-68
2022/09/08 10:01:54;;;;;;;11.00;2.37;;;;;;;21.11;26.59;100044.19;4199678;28;20419;-66
2022/09/08 10:04:45;;;;;;;5.07;2.23;;;;;;;21.12;26.64;100041.25;4219492;28;20239;-67
2022/09/08 10:07:23;;;;;;;9.30;2.33;;;;;;;20.84;26.27;100041.75;4225285;28;20425;-67
2022/09/08 10:10:20;;;;;;;5.73;2.23;;;;;;;20.48;25.90;100035.13;4205138;28;20291;-68
2022/09/08 10:12:53;;;;;;;7.97;2.20;;;;;;;20.52;26.21;100049.06;4211946;28;20932;-69
2022/09/08 10:15:34;;;;;;;17.23;2.43;;;;;;;20.58;25.70;100034.66;4198960;28;20230;-68
2022/09/08 10:18:03;;;;;;;4.93;2.40;;;;;;;20.74;25.85;100042.22;4220385;28;21880;-68
2022/09/08 10:21:02;;;;;;;13.10;2.13;;;;;;;20.63;26.20;100049.19;4195656;28;20707;-67
2022/09/08 10:23:44;;;;;;;4.57;1.80;;;;;;;20.74;26.25;100047.63;4216690;28;20600;-69
2022/09/08 10:26:22;;;;;;;7.43;2.00;;;;;;;20.80;25.19;100051.34;4208402;28;20241;-67
2022/09/08 10:29:25;;;;;;;5.93;1.90;;;;;;;20.83;24.36;100057.13;4197355;28;20246;-67
2022/09/08 10:32:34;;;;;;;4.47;2.10;;;;;;;20.63;24.98;100056.50;4214477;28;20411;-68
2022/09/08 10:35:30;;;;;;;8.27;2.20;;;;;;;20.71;24.69;100055.38;4200441;28;20307;-68
2022/09/08 10:38:19;;;;;;;7.93;2.23;;;;;;;20.84;25.25;100044.44;4201242;28;20239;-67
2022/09/08 10:40:58;;;;;;;6.73;1.90;;;;;;;20.97;25.34;100044.31;4201560;28;20248;-65
2022/09/08 10:43:43;;;;;;;7.27;2.00;;;;;;;21.03;25.85;100054.25;4205625;28;20433;-68
2022/09/08 10:46:44;;;;;;;11.57;2.10;;;;;;;21.16;24.95;100036.22;4214784;28;20309;-69
2022/09/08 10:49:36;;;;;;;9.10;2.30;;;;;;;20.80;25.30;100033.22;4199427;28;22937;-69
2022/09/08 10:52:32;;;;;;;9.87;2.03;;;;;;;20.97;25.41;100033.47;4214983;28;21046;-67
2022/09/08 10:55:27;;;;;;;7.03;2.30;;;;;;;20.90;25.45;100027.31;4211275;28;24080;-69
2022/09/08 10:58:15;;;;;;;7.20;2.40;;;;;;;20.89;26.25;100028.38;4210891;28;20230;-68
2022/09/08 11:01:06;;;;;;;8.33;2.20;;;;;;;21.01;25.76;100023.88;4197264;28;21941;-67
2022/09/08 11:03:51;;;;;;;12.83;2.40;;;;;;;20.97;25.70;100025.38;4209960;28;20233;-66
2022/09/08 11:06:55;;;;;;;7.67;1.90;;;;;;;20.94;25.67;100016.88;4202450;28;20260;-70
2022/09/08 11:09:50;;;;;;;8.10;1.70;;;;;;;20.71;25.23;100023.75;4193954;28;21773;-69
2022/09/08 11:13:15;;;;;;;7.20;2.27;;;;;;;20.98;25.27;100016.22;4220373;28;20239;-68
2022/09/08 11:16:05;;;;;;;10.60;2.03;;;;;;;21.08;25.53;100013.00;4222377;28;20233;-69
2022/09/08 11:18:36;;;;;;;6.00;2.13;;;;;;;21.03;25.74;100005.56;4193746;28;20315;-68
2022/09/08 11:21:08;;;;;;;9.80;2.10;;;;;;;21.08;25.53;100004.88;4207630;28;20410;-58
2022/09/08 11:23:49;;;;;;;8.77;2.20;;;;;;;20.88;25.37;100002.38;4197073;28;21186;-64
2022/09/08 11:26:44;;;;;;;6.93;1.63;;;;;;;21.23;24.86;100005.31;4208069;28;20414;-64
2022/09/08 11:29:16;;;;;;;8.70;2.00;;;;;;;21.26;24.67;100006.78;4190957;28;20228;-66
2022/09/08 11:31:57;;;;;;;5.17;1.87;;;;;;;21.26;23.42;99998.66;4204351;28;20271;-66
2022/09/08 11:34:36;;;;;;;9.17;1.50;;;;;;;21.31;24.31;99993.38;4207422;28;20304;-64
2022/09/08 11:37:19;;;;;;;10.53;2.10;;;;;;;21.69;24.56;99992.31;4209809;28;20595;-67
2022/09/08 11:40:08;;;;;;;13.37;2.17;;;;;;;21.73;23.95;99993.50;4202539;28;20243;-63
2022/09/08 11:42:45;;;;;;;11.83;1.83;;;;;;;21.69;24.53;99998.53;4220551;28;20304;-59
2022/09/08 11:45:28;;;;;;;7.97;1.80;;;;;;;21.91;24.00;100004.31;4208061;28;21147;-63
2022/09/08 11:47:57;;;;;;;4.87;1.87;;;;;;;21.48;24.03;100002.56;4184090;28;20236;-65
2022/09/08 11:50:35;;;;;;;6.07;1.80;;;;;;;21.24;24.37;99989.94;4207678;28;23907;-65
2022/09/08 11:53:38;;;;;;;5.50;1.70;;;;;;;21.44;23.83;100001.34;4203769;28;21186;-64
2022/09/08 11:56:50;;;;;;;5.73;1.63;;;;;;;21.43;24.20;99991.59;4211489;28;23468;-63
2022/09/08 11:59:49;;;;;;;7.17;1.90;;;;;;;21.76;23.91;99982.22;4207572;28;20246;-64
2022/09/08 12:02:34;;;;;;;8.63;1.63;;;;;;;21.77;24.12;99983.84;4212297;28;20240;-63
2022/09/08 12:05:25;;;;;;;9.03;2.00;;;;;;;21.90;24.09;99978.25;4209623;28;21196;-63
2022/09/08 12:08:30;;;;;;;3.67;1.70;;;;;;;21.76;24.28;99976.78;4197928;28;20232;-63